DAFH

Hassi R'Mel Airport

Algeria
TAF DAFH 210800Z 2109/2118 17014KT CAVOK
Issued Valid From Valid To
Jun-21 @ 08:00 UTC
(2 hours ago)
Jun-21 @ 09:00 UTC
(60 minutes ago)
Jun-21 @ 18:00 UTC
(in 8 hours)
Jun-21 @ 09:00 to Jun-21 @ 18:00
TAF DAFH 210800Z 2109/2118 17014KT CAVOK
Wind Visibility Clouds Conditions
170° at 14 knots 10,000+ meters
  • No significant clouds
TAF DAFH 210800Z 2109/2118 17014KT CAVOK
Issued Jun-21 @ 08:00 UTC
(2 hours ago)
Valid From Jun-21 @ 09:00 UTC
(60 minutes ago)
Valid To Jun-21 @ 18:00 UTC
(in 8 hours)
Jun-21 @ 09:00 - Jun-21 @ 18:00
Wind Visibility
170° at 14 knots 10,000+ meters
Clouds
  • No significant clouds
Conditions